Smoke Tree, California
Current Conditions -  °F | °C
As of 4:53 PM on Saturday 20 Dec 2014 (Local Time) from KPSP Reporting Station
Broken Clouds Broken Clouds  
Wind Chill: 64°   Ceiling: 20000
Heat Index: 64°   Visibility: 10mi
Dew Point: 42°   Wind: 3mph
Humidity: 45%   Direction: 320°NW
Pressure: 30.1"   Gusts: NA
Location:  33.8563°N, 116.571°W
Report Text: KPSP 210053Z 32003KT 10SM BKN200 18/06 A3010 RMK AO2 PRESRR SLP194 T01780056
Loading
Personal Weather Stations






























Interactive Weather Map New forecast layout! Learn more

10-Day Weather Forecast

Advertisements
Track Severe Weather on mobile